Artie, WV

7:02 PM EST on March 05, 2015 (GMT -0500)
Fairdale | Change Station
CLOSE
Current Station
Personal Weather Station
Location: Lester, WV
Elevation: 1938 ft
Nearby Weather Stations

Elev 1938 ft 37.74 °N, 81.35 °W | Updated 10 seconds ago

Overcast
Overcast
19.0 °F
Feels Like 19 °F
N
0.0
Wind Variable Wind from NW
Gusts 0.0 mph

Today
High -- | Low -- °F
--% Chance of Precip.
Yesterday
High -- | Low -- °F
Precip. -- in
6:51 AM 6:22 PM
Full, 100% visible
Pressure 30.28 in
Visibility 4.0 miles
Clouds Mostly Cloudy 1300 ft
Overcast 6500 ft
Windchill 19 °F
Dew Point 9 °F
Humidity 64%
Rainfall in
Snow Depth Not available.
UV 0 out of 12
Pollen .80 out of 12
Air Quality Not available.
Flu Activity Not available.
SPECI KBKW 052359Z AUTO 33009KT 4SM -SN BKN013 OVC065 M08/M11 A3028 RMK AO2 P0000 T10831111

More Conditions Fewer Conditions

Pressure 30.28 in
Visibility 4.0 miles
Clouds Mostly Cloudy 1300 ft
Overcast 6500 ft
Windchill 19 °F
Dew Point 9 °F
Humidity 64%
Rainfall in
Snow Depth Not available.
UV 0 out of 12
Pollen .80 out of 12
Air Quality Not available.
Flu Activity Not available.
SPECI KBKW 052359Z AUTO 33009KT 4SM -SN BKN013 OVC065 M08/M11 A3028 RMK AO2 P0000 T10831111

More Conditions Fewer Conditions

10-Day Weather Forecast

Almanac

Astronomy

Mar. 05, 2015 Rise Set
Actual Time
Civil Twilight
Nautical Twilight
Astronomical Twilight
Moon
Length of Visible Light
Length of Day
Tomorrow will be .
, % of the Moon is Illuminated

Today's Extremes

State Highs State Lows

Community

WunderPhotos

Upload Photos

1,803,066 photos uploaded!

WunderBlogs® & News

Nearby

Air Quality

  Air Quality AQ Index Pollutant
Not available.

Snow Depth

Station Depth Elevation

Earthquake Activity

City Distance Mag. Time & Date
Minimum magnitude displayed is 2.5.

Coastal Water Temperatures

Place Temperature

Nearby Weather Stations